sensor_id;sensor_type;location;lat;lon;timestamp;P1;durP1;ratioP1;P2;durP2;ratioP2
5841;SDS011;2947;52.276;9.946;2023-04-24T00:02:14;2.03;;;0.80;;
5841;SDS011;2947;52.276;9.946;2023-04-24T00:04:40;2.10;;;0.82;;
5841;SDS011;2947;52.276;9.946;2023-04-24T00:07:09;2.10;;;0.90;;
5841;SDS011;2947;52.276;9.946;2023-04-24T00:09:36;2.85;;;1.05;;
5841;SDS011;2947;52.276;9.946;2023-04-24T00:12:02;2.20;;;1.00;;
5841;SDS011;2947;52.276;9.946;2023-04-24T00:14:29;2.45;;;1.00;;
5841;SDS011;2947;52.276;9.946;2023-04-24T00:16:59;2.95;;;1.00;;
5841;SDS011;2947;52.276;9.946;2023-04-24T00:19:27;2.22;;;1.20;;
5841;SDS011;2947;52.276;9.946;2023-04-24T00:21:54;2.05;;;1.05;;
5841;SDS011;2947;52.276;9.946;2023-04-24T00:24:20;1.67;;;0.93;;
5841;SDS011;2947;52.276;9.946;2023-04-24T00:26:46;2.47;;;1.17;;
5841;SDS011;2947;52.276;9.946;2023-04-24T00:29:11;3.28;;;1.17;;
5841;SDS011;2947;52.276;9.946;2023-04-24T00:31:37;2.13;;;1.38;;
5841;SDS011;2947;52.276;9.946;2023-04-24T00:34:03;2.72;;;1.38;;
5841;SDS011;2947;52.276;9.946;2023-04-24T00:36:29;3.35;;;1.58;;
5841;SDS011;2947;52.276;9.946;2023-04-24T00:38:55;2.50;;;1.33;;
5841;SDS011;2947;52.276;9.946;2023-04-24T00:41:22;2.65;;;1.10;;
5841;SDS011;2947;52.276;9.946;2023-04-24T00:43:50;4.80;;;1.30;;
5841;SDS011;2947;52.276;9.946;2023-04-24T00:46:17;5.32;;;1.90;;
5841;SDS011;2947;52.276;9.946;2023-04-24T00:48:42;4.15;;;1.50;;
5841;SDS011;2947;52.276;9.946;2023-04-24T00:51:08;5.75;;;1.20;;
5841;SDS011;2947;52.276;9.946;2023-04-24T00:53:34;4.07;;;1.40;;
5841;SDS011;2947;52.276;9.946;2023-04-24T00:56:00;2.65;;;1.40;;
5841;SDS011;2947;52.276;9.946;2023-04-24T00:58:27;2.28;;;1.35;;
5841;SDS011;2947;52.276;9.946;2023-04-24T01:00:54;3.40;;;1.30;;
5841;SDS011;2947;52.276;9.946;2023-04-24T01:03:24;2.38;;;1.52;;
5841;SDS011;2947;52.276;9.946;2023-04-24T01:05:55;2.30;;;1.20;;
5841;SDS011;2947;52.276;9.946;2023-04-24T01:08:22;2.80;;;1.45;;
5841;SDS011;2947;52.276;9.946;2023-04-24T01:10:50;2.17;;;1.40;;
5841;SDS011;2947;52.276;9.946;2023-04-24T01:13:20;2.40;;;1.23;;
5841;SDS011;2947;52.276;9.946;2023-04-24T01:15:46;2.77;;;1.30;;
5841;SDS011;2947;52.276;9.946;2023-04-24T01:18:13;3.88;;;1.52;;
5841;SDS011;2947;52.276;9.946;2023-04-24T01:20:39;2.80;;;1.20;;
5841;SDS011;2947;52.276;9.946;2023-04-24T01:23:08;5.63;;;1.30;;
5841;SDS011;2947;52.276;9.946;2023-04-24T01:25:35;2.30;;;1.17;;
5841;SDS011;2947;52.276;9.946;2023-04-24T01:28:01;2.70;;;1.40;;
5841;SDS011;2947;52.276;9.946;2023-04-24T01:30:27;3.97;;;1.40;;
5841;SDS011;2947;52.276;9.946;2023-04-24T01:32:53;2.00;;;1.20;;
5841;SDS011;2947;52.276;9.946;2023-04-24T01:35:20;2.60;;;1.40;;
5841;SDS011;2947;52.276;9.946;2023-04-24T01:37:45;2.10;;;1.00;;
5841;SDS011;2947;52.276;9.946;2023-04-24T01:40:11;2.20;;;1.17;;
5841;SDS011;2947;52.276;9.946;2023-04-24T01:42:37;4.30;;;1.27;;
5841;SDS011;2947;52.276;9.946;2023-04-24T01:45:04;4.20;;;1.70;;
5841;SDS011;2947;52.276;9.946;2023-04-24T01:47:31;3.90;;;1.43;;
5841;SDS011;2947;52.276;9.946;2023-04-24T01:49:57;2.30;;;1.30;;
5841;SDS011;2947;52.276;9.946;2023-04-24T01:52:23;7.30;;;1.67;;
5841;SDS011;2947;52.276;9.946;2023-04-24T01:54:49;2.13;;;1.30;;
5841;SDS011;2947;52.276;9.946;2023-04-24T01:57:15;4.87;;;1.50;;
5841;SDS011;2947;52.276;9.946;2023-04-24T01:59:41;2.37;;;1.30;;
5841;SDS011;2947;52.276;9.946;2023-04-24T02:02:07;4.63;;;1.80;;
5841;SDS011;2947;52.276;9.946;2023-04-24T02:04:33;3.93;;;1.70;;
5841;SDS011;2947;52.276;9.946;2023-04-24T02:06:59;2.10;;;1.33;;
5841;SDS011;2947;52.276;9.946;2023-04-24T02:09:24;3.27;;;1.40;;
5841;SDS011;2947;52.276;9.946;2023-04-24T02:11:50;4.77;;;1.80;;
5841;SDS011;2947;52.276;9.946;2023-04-24T02:14:16;2.67;;;1.80;;
5841;SDS011;2947;52.276;9.946;2023-04-24T02:16:42;2.70;;;1.50;;
5841;SDS011;2947;52.276;9.946;2023-04-24T02:19:08;6.90;;;1.93;;
5841;SDS011;2947;52.276;9.946;2023-04-24T02:21:35;4.18;;;1.70;;
5841;SDS011;2947;52.276;9.946;2023-04-24T02:24:00;3.50;;;1.73;;
5841;SDS011;2947;52.276;9.946;2023-04-24T02:26:26;3.40;;;1.70;;
5841;SDS011;2947;52.276;9.946;2023-04-24T02:28:52;3.43;;;1.57;;
5841;SDS011;2947;52.276;9.946;2023-04-24T02:31:17;3.03;;;1.10;;
5841;SDS011;2947;52.276;9.946;2023-04-24T02:33:43;2.43;;;1.27;;
5841;SDS011;2947;52.276;9.946;2023-04-24T02:36:09;2.90;;;1.50;;
5841;SDS011;2947;52.276;9.946;2023-04-24T02:38:35;2.60;;;1.27;;
5841;SDS011;2947;52.276;9.946;2023-04-24T02:41:00;2.53;;;1.20;;
5841;SDS011;2947;52.276;9.946;2023-04-24T02:43:27;2.27;;;1.33;;
5841;SDS011;2947;52.276;9.946;2023-04-24T02:45:53;10.20;;;1.47;;
5841;SDS011;2947;52.276;9.946;2023-04-24T02:48:18;7.90;;;1.27;;
5841;SDS011;2947;52.276;9.946;2023-04-24T02:50:45;5.10;;;1.30;;
5841;SDS011;2947;52.276;9.946;2023-04-24T02:53:11;3.13;;;1.03;;
5841;SDS011;2947;52.276;9.946;2023-04-24T02:55:37;2.60;;;1.50;;
5841;SDS011;2947;52.276;9.946;2023-04-24T02:58:03;2.33;;;1.23;;
5841;SDS011;2947;52.276;9.946;2023-04-24T03:00:29;2.37;;;1.33;;
5841;SDS011;2947;52.276;9.946;2023-04-24T03:02:54;2.70;;;1.30;;
5841;SDS011;2947;52.276;9.946;2023-04-24T03:05:20;4.07;;;1.53;;
5841;SDS011;2947;52.276;9.946;2023-04-24T03:07:46;3.60;;;1.00;;
5841;SDS011;2947;52.276;9.946;2023-04-24T03:10:12;4.50;;;1.60;;
5841;SDS011;2947;52.276;9.946;2023-04-24T03:12:37;1.90;;;1.20;;
5841;SDS011;2947;52.276;9.946;2023-04-24T03:15:03;2.67;;;1.20;;
5841;SDS011;2947;52.276;9.946;2023-04-24T03:17:29;4.47;;;1.70;;
5841;SDS011;2947;52.276;9.946;2023-04-24T03:19:55;2.80;;;1.20;;
5841;SDS011;2947;52.276;9.946;2023-04-24T03:22:21;2.20;;;1.20;;
5841;SDS011;2947;52.276;9.946;2023-04-24T03:24:46;2.80;;;1.10;;
5841;SDS011;2947;52.276;9.946;2023-04-24T03:27:12;1.90;;;1.00;;
5841;SDS011;2947;52.276;9.946;2023-04-24T03:29:38;3.40;;;1.40;;
5841;SDS011;2947;52.276;9.946;2023-04-24T03:32:03;2.17;;;1.30;;
5841;SDS011;2947;52.276;9.946;2023-04-24T03:34:29;3.07;;;1.40;;
5841;SDS011;2947;52.276;9.946;2023-04-24T03:36:55;3.80;;;1.47;;
5841;SDS011;2947;52.276;9.946;2023-04-24T03:39:20;2.23;;;1.17;;
5841;SDS011;2947;52.276;9.946;2023-04-24T03:41:46;5.53;;;1.10;;
5841;SDS011;2947;52.276;9.946;2023-04-24T03:44:12;3.07;;;1.40;;
5841;SDS011;2947;52.276;9.946;2023-04-24T03:46:37;2.10;;;1.00;;
5841;SDS011;2947;52.276;9.946;2023-04-24T03:49:03;2.90;;;1.13;;
5841;SDS011;2947;52.276;9.946;2023-04-24T03:51:29;2.10;;;1.00;;
5841;SDS011;2947;52.276;9.946;2023-04-24T03:53:56;7.80;;;1.40;;
5841;SDS011;2947;52.276;9.946;2023-04-24T03:56:22;2.03;;;1.00;;
5841;SDS011;2947;52.276;9.946;2023-04-24T03:58:47;5.17;;;1.20;;
5841;SDS011;2947;52.276;9.946;2023-04-24T04:01:13;2.53;;;1.20;;
5841;SDS011;2947;52.276;9.946;2023-04-24T04:03:40;2.00;;;1.10;;
5841;SDS011;2947;52.276;9.946;2023-04-24T04:06:06;1.73;;;0.90;;
5841;SDS011;2947;52.276;9.946;2023-04-24T04:08:32;2.10;;;0.90;;
5841;SDS011;2947;52.276;9.946;2023-04-24T04:10:58;3.33;;;1.40;;
5841;SDS011;2947;52.276;9.946;2023-04-24T04:13:24;3.40;;;1.30;;
5841;SDS011;2947;52.276;9.946;2023-04-24T04:15:49;3.50;;;1.13;;
5841;SDS011;2947;52.276;9.946;2023-04-24T04:18:15;1.93;;;1.07;;
5841;SDS011;2947;52.276;9.946;2023-04-24T04:20:40;2.10;;;1.00;;
5841;SDS011;2947;52.276;9.946;2023-04-24T04:23:06;2.00;;;0.90;;
5841;SDS011;2947;52.276;9.946;2023-04-24T04:25:32;1.90;;;0.93;;
5841;SDS011;2947;52.276;9.946;2023-04-24T04:27:58;3.47;;;1.63;;
5841;SDS011;2947;52.276;9.946;2023-04-24T04:30:24;1.90;;;0.90;;
5841;SDS011;2947;52.276;9.946;2023-04-24T04:32:50;3.03;;;1.10;;
5841;SDS011;2947;52.276;9.946;2023-04-24T04:35:16;1.97;;;1.07;;
5841;SDS011;2947;52.276;9.946;2023-04-24T04:37:42;4.40;;;1.40;;
5841;SDS011;2947;52.276;9.946;2023-04-24T04:40:08;2.07;;;1.03;;
5841;SDS011;2947;52.276;9.946;2023-04-24T04:42:36;2.73;;;1.10;;
5841;SDS011;2947;52.276;9.946;2023-04-24T04:45:05;3.03;;;1.30;;
5841;SDS011;2947;52.276;9.946;2023-04-24T04:47:34;2.10;;;1.23;;
5841;SDS011;2947;52.276;9.946;2023-04-24T04:49:59;3.63;;;1.37;;
5841;SDS011;2947;52.276;9.946;2023-04-24T04:52:26;3.30;;;1.10;;
5841;SDS011;2947;52.276;9.946;2023-04-24T04:54:52;2.10;;;1.00;;
5841;SDS011;2947;52.276;9.946;2023-04-24T04:57:17;3.00;;;1.13;;
5841;SDS011;2947;52.276;9.946;2023-04-24T04:59:43;3.70;;;1.13;;
5841;SDS011;2947;52.276;9.946;2023-04-24T05:02:09;3.40;;;1.03;;
5841;SDS011;2947;52.276;9.946;2023-04-24T05:04:35;2.30;;;1.10;;
5841;SDS011;2947;52.276;9.946;2023-04-24T05:07:01;5.23;;;1.13;;
5841;SDS011;2947;52.276;9.946;2023-04-24T05:09:26;2.17;;;1.10;;
5841;SDS011;2947;52.276;9.946;2023-04-24T05:11:54;2.07;;;1.20;;
5841;SDS011;2947;52.276;9.946;2023-04-24T05:14:20;3.00;;;1.17;;
5841;SDS011;2947;52.276;9.946;2023-04-24T05:16:46;2.97;;;1.50;;
5841;SDS011;2947;52.276;9.946;2023-04-24T05:19:12;3.30;;;1.20;;
5841;SDS011;2947;52.276;9.946;2023-04-24T05:21:39;2.87;;;1.20;;
5841;SDS011;2947;52.276;9.946;2023-04-24T05:24:08;3.73;;;1.20;;
5841;SDS011;2947;52.276;9.946;2023-04-24T05:26:33;2.23;;;1.30;;
5841;SDS011;2947;52.276;9.946;2023-04-24T05:29:00;2.70;;;1.10;;
5841;SDS011;2947;52.276;9.946;2023-04-24T05:31:27;2.97;;;1.63;;
5841;SDS011;2947;52.276;9.946;2023-04-24T05:33:52;4.27;;;1.30;;
5841;SDS011;2947;52.276;9.946;2023-04-24T05:36:18;4.40;;;1.10;;
5841;SDS011;2947;52.276;9.946;2023-04-24T05:38:44;4.57;;;1.40;;
5841;SDS011;2947;52.276;9.946;2023-04-24T05:41:10;3.20;;;1.30;;
5841;SDS011;2947;52.276;9.946;2023-04-24T05:43:35;3.63;;;1.00;;
5841;SDS011;2947;52.276;9.946;2023-04-24T05:46:01;3.97;;;1.20;;
5841;SDS011;2947;52.276;9.946;2023-04-24T05:48:27;2.30;;;1.10;;
5841;SDS011;2947;52.276;9.946;2023-04-24T05:50:52;3.50;;;1.30;;
5841;SDS011;2947;52.276;9.946;2023-04-24T05:53:18;2.17;;;0.93;;
5841;SDS011;2947;52.276;9.946;2023-04-24T05:55:44;2.60;;;1.30;;
5841;SDS011;2947;52.276;9.946;2023-04-24T05:58:10;2.63;;;1.23;;
5841;SDS011;2947;52.276;9.946;2023-04-24T06:00:37;3.83;;;1.00;;
5841;SDS011;2947;52.276;9.946;2023-04-24T06:03:04;2.37;;;1.20;;
5841;SDS011;2947;52.276;9.946;2023-04-24T06:05:30;2.33;;;0.90;;
5841;SDS011;2947;52.276;9.946;2023-04-24T06:07:56;1.90;;;0.90;;
5841;SDS011;2947;52.276;9.946;2023-04-24T06:10:22;1.97;;;1.00;;
5841;SDS011;2947;52.276;9.946;2023-04-24T06:12:48;2.23;;;1.20;;
5841;SDS011;2947;52.276;9.946;2023-04-24T06:15:13;2.47;;;1.10;;
5841;SDS011;2947;52.276;9.946;2023-04-24T06:17:39;3.43;;;2.27;;
5841;SDS011;2947;52.276;9.946;2023-04-24T06:20:05;3.27;;;1.07;;
5841;SDS011;2947;52.276;9.946;2023-04-24T06:22:32;1.90;;;0.90;;
5841;SDS011;2947;52.276;9.946;2023-04-24T06:24:59;2.10;;;0.97;;
5841;SDS011;2947;52.276;9.946;2023-04-24T06:27:25;2.70;;;0.93;;
5841;SDS011;2947;52.276;9.946;2023-04-24T06:29:51;2.40;;;0.90;;
5841;SDS011;2947;52.276;9.946;2023-04-24T06:32:20;3.07;;;1.00;;
5841;SDS011;2947;52.276;9.946;2023-04-24T06:34:47;5.23;;;1.30;;
5841;SDS011;2947;52.276;9.946;2023-04-24T06:37:13;2.00;;;1.23;;
5841;SDS011;2947;52.276;9.946;2023-04-24T06:39:40;3.10;;;1.70;;
5841;SDS011;2947;52.276;9.946;2023-04-24T06:42:06;2.30;;;1.33;;
5841;SDS011;2947;52.276;9.946;2023-04-24T06:44:33;2.80;;;1.30;;
5841;SDS011;2947;52.276;9.946;2023-04-24T06:47:02;2.87;;;1.20;;
5841;SDS011;2947;52.276;9.946;2023-04-24T06:49:28;2.10;;;1.30;;
5841;SDS011;2947;52.276;9.946;2023-04-24T06:51:54;4.50;;;1.43;;
5841;SDS011;2947;52.276;9.946;2023-04-24T06:54:19;2.30;;;1.30;;
5841;SDS011;2947;52.276;9.946;2023-04-24T06:56:45;2.60;;;1.10;;
5841;SDS011;2947;52.276;9.946;2023-04-24T06:59:12;3.50;;;1.50;;
5841;SDS011;2947;52.276;9.946;2023-04-24T07:01:38;4.20;;;1.50;;
5841;SDS011;2947;52.276;9.946;2023-04-24T07:04:04;2.80;;;1.07;;
5841;SDS011;2947;52.276;9.946;2023-04-24T07:06:29;2.93;;;1.33;;
5841;SDS011;2947;52.276;9.946;2023-04-24T07:08:55;3.20;;;1.37;;
5841;SDS011;2947;52.276;9.946;2023-04-24T07:11:21;3.30;;;2.00;;
5841;SDS011;2947;52.276;9.946;2023-04-24T07:13:47;3.70;;;1.70;;
5841;SDS011;2947;52.276;9.946;2023-04-24T07:16:12;3.20;;;1.63;;
5841;SDS011;2947;52.276;9.946;2023-04-24T07:18:38;2.90;;;1.50;;
5841;SDS011;2947;52.276;9.946;2023-04-24T07:21:04;3.17;;;1.83;;
5841;SDS011;2947;52.276;9.946;2023-04-24T07:23:31;3.87;;;1.97;;
5841;SDS011;2947;52.276;9.946;2023-04-24T07:25:57;11.60;;;2.40;;
5841;SDS011;2947;52.276;9.946;2023-04-24T07:28:22;4.57;;;3.00;;
5841;SDS011;2947;52.276;9.946;2023-04-24T07:30:48;4.30;;;2.93;;
5841;SDS011;2947;52.276;9.946;2023-04-24T07:33:13;5.77;;;3.60;;
5841;SDS011;2947;52.276;9.946;2023-04-24T07:35:39;6.43;;;3.70;;
5841;SDS011;2947;52.276;9.946;2023-04-24T07:38:05;6.30;;;4.60;;
5841;SDS011;2947;52.276;9.946;2023-04-24T07:40:31;8.70;;;5.20;;
5841;SDS011;2947;52.276;9.946;2023-04-24T07:42:56;8.13;;;6.00;;
5841;SDS011;2947;52.276;9.946;2023-04-24T07:45:22;7.88;;;5.35;;
5841;SDS011;2947;52.276;9.946;2023-04-24T07:47:49;10.97;;;6.80;;
5841;SDS011;2947;52.276;9.946;2023-04-24T07:50:15;12.10;;;6.70;;
5841;SDS011;2947;52.276;9.946;2023-04-24T07:52:41;12.13;;;5.63;;
5841;SDS011;2947;52.276;9.946;2023-04-24T07:55:07;9.30;;;6.03;;
5841;SDS011;2947;52.276;9.946;2023-04-24T07:57:33;7.87;;;5.50;;
5841;SDS011;2947;52.276;9.946;2023-04-24T07:59:59;5.95;;;4.60;;
5841;SDS011;2947;52.276;9.946;2023-04-24T08:02:24;8.63;;;5.50;;
5841;SDS011;2947;52.276;9.946;2023-04-24T08:04:54;9.10;;;4.90;;
5841;SDS011;2947;52.276;9.946;2023-04-24T08:07:20;10.53;;;6.40;;
5841;SDS011;2947;52.276;9.946;2023-04-24T08:09:46;13.20;;;5.90;;
5841;SDS011;2947;52.276;9.946;2023-04-24T08:12:12;6.22;;;4.60;;
5841;SDS011;2947;52.276;9.946;2023-04-24T08:14:38;8.97;;;5.13;;
5841;SDS011;2947;52.276;9.946;2023-04-24T08:17:03;7.80;;;4.70;;
5841;SDS011;2947;52.276;9.946;2023-04-24T08:19:29;9.13;;;5.95;;
5841;SDS011;2947;52.276;9.946;2023-04-24T08:21:55;9.13;;;5.18;;
5841;SDS011;2947;52.276;9.946;2023-04-24T08:24:21;8.35;;;5.00;;
5841;SDS011;2947;52.276;9.946;2023-04-24T08:26:48;9.33;;;5.83;;
5841;SDS011;2947;52.276;9.946;2023-04-24T08:29:18;7.68;;;5.13;;
5841;SDS011;2947;52.276;9.946;2023-04-24T08:31:45;8.20;;;5.32;;
5841;SDS011;2947;52.276;9.946;2023-04-24T08:34:11;7.68;;;5.20;;
5841;SDS011;2947;52.276;9.946;2023-04-24T08:36:36;8.95;;;5.57;;
5841;SDS011;2947;52.276;9.946;2023-04-24T08:39:02;8.88;;;5.20;;
5841;SDS011;2947;52.276;9.946;2023-04-24T08:41:28;9.05;;;5.75;;
5841;SDS011;2947;52.276;9.946;2023-04-24T08:43:55;9.45;;;4.90;;
5841;SDS011;2947;52.276;9.946;2023-04-24T08:46:23;6.55;;;4.38;;
5841;SDS011;2947;52.276;9.946;2023-04-24T08:48:50;9.93;;;5.38;;
5841;SDS011;2947;52.276;9.946;2023-04-24T08:51:17;8.07;;;5.47;;
5841;SDS011;2947;52.276;9.946;2023-04-24T08:53:43;8.73;;;5.45;;
5841;SDS011;2947;52.276;9.946;2023-04-24T08:56:11;8.85;;;5.38;;
5841;SDS011;2947;52.276;9.946;2023-04-24T08:58:37;12.75;;;5.70;;
5841;SDS011;2947;52.276;9.946;2023-04-24T09:01:03;6.60;;;4.70;;
5841;SDS011;2947;52.276;9.946;2023-04-24T09:03:30;9.30;;;4.80;;
5841;SDS011;2947;52.276;9.946;2023-04-24T09:05:58;9.27;;;5.47;;
5841;SDS011;2947;52.276;9.946;2023-04-24T09:08:25;7.88;;;5.18;;
5841;SDS011;2947;52.276;9.946;2023-04-24T09:10:53;8.13;;;5.07;;
5841;SDS011;2947;52.276;9.946;2023-04-24T09:13:22;8.57;;;4.80;;
5841;SDS011;2947;52.276;9.946;2023-04-24T09:15:48;11.68;;;5.32;;
5841;SDS011;2947;52.276;9.946;2023-04-24T09:18:13;8.00;;;5.40;;
5841;SDS011;2947;52.276;9.946;2023-04-24T09:23:31;10.55;;;4.57;;
5841;SDS011;2947;52.276;9.946;2023-04-24T09:25:58;4.95;;;3.40;;
5841;SDS011;2947;52.276;9.946;2023-04-24T09:28:27;5.32;;;3.45;;
5841;SDS011;2947;52.276;9.946;2023-04-24T09:31:07;5.35;;;3.55;;
5841;SDS011;2947;52.276;9.946;2023-04-24T09:33:39;7.22;;;3.00;;
5841;SDS011;2947;52.276;9.946;2023-04-24T09:36:05;5.13;;;2.88;;
5841;SDS011;2947;52.276;9.946;2023-04-24T09:38:35;4.13;;;2.40;;
5841;SDS011;2947;52.276;9.946;2023-04-24T09:41:03;4.07;;;2.60;;
5841;SDS011;2947;52.276;9.946;2023-04-24T09:43:32;9.43;;;3.03;;
5841;SDS011;2947;52.276;9.946;2023-04-24T09:46:04;5.20;;;3.28;;
5841;SDS011;2947;52.276;9.946;2023-04-24T09:48:32;7.00;;;2.80;;
5841;SDS011;2947;52.276;9.946;2023-04-24T09:51:00;5.35;;;3.03;;
5841;SDS011;2947;52.276;9.946;2023-04-24T09:53:29;5.25;;;3.30;;
5841;SDS011;2947;52.276;9.946;2023-04-24T09:55:56;5.18;;;3.58;;
5841;SDS011;2947;52.276;9.946;2023-04-24T09:58:31;4.00;;;2.58;;
5841;SDS011;2947;52.276;9.946;2023-04-24T10:00:57;4.65;;;2.75;;
5841;SDS011;2947;52.276;9.946;2023-04-24T10:03:26;4.95;;;2.58;;
5841;SDS011;2947;52.276;9.946;2023-04-24T10:06:00;3.90;;;2.40;;
5841;SDS011;2947;52.276;9.946;2023-04-24T10:08:32;7.40;;;2.95;;
5841;SDS011;2947;52.276;9.946;2023-04-24T10:11:00;3.30;;;2.38;;
5841;SDS011;2947;52.276;9.946;2023-04-24T10:13:26;3.47;;;2.25;;
5841;SDS011;2947;52.276;9.946;2023-04-24T10:15:53;5.65;;;2.13;;
5841;SDS011;2947;52.276;9.946;2023-04-24T10:18:20;4.75;;;2.35;;
5841;SDS011;2947;52.276;9.946;2023-04-24T10:20:46;3.33;;;1.95;;
5841;SDS011;2947;52.276;9.946;2023-04-24T10:23:12;5.30;;;2.42;;
5841;SDS011;2947;52.276;9.946;2023-04-24T10:25:38;3.33;;;1.95;;
5841;SDS011;2947;52.276;9.946;2023-04-24T10:28:04;3.85;;;1.95;;
5841;SDS011;2947;52.276;9.946;2023-04-24T10:30:31;2.80;;;1.80;;
5841;SDS011;2947;52.276;9.946;2023-04-24T10:33:02;3.15;;;1.80;;
5841;SDS011;2947;52.276;9.946;2023-04-24T10:35:34;4.13;;;2.10;;
5841;SDS011;2947;52.276;9.946;2023-04-24T10:38:06;3.65;;;2.33;;
5841;SDS011;2947;52.276;9.946;2023-04-24T10:40:37;4.82;;;2.13;;
5841;SDS011;2947;52.276;9.946;2023-04-24T10:43:06;3.60;;;2.20;;
5841;SDS011;2947;52.276;9.946;2023-04-24T10:45:35;3.88;;;2.00;;
5841;SDS011;2947;52.276;9.946;2023-04-24T10:48:01;3.97;;;2.20;;
5841;SDS011;2947;52.276;9.946;2023-04-24T10:50:34;3.40;;;2.20;;
5841;SDS011;2947;52.276;9.946;2023-04-24T10:53:15;3.33;;;2.10;;
5841;SDS011;2947;52.276;9.946;2023-04-24T10:55:44;5.10;;;2.80;;
5841;SDS011;2947;52.276;9.946;2023-04-24T10:58:12;3.90;;;2.72;;
5841;SDS011;2947;52.276;9.946;2023-04-24T11:00:40;3.53;;;2.10;;
5841;SDS011;2947;52.276;9.946;2023-04-24T11:03:22;3.58;;;2.22;;
5841;SDS011;2947;52.276;9.946;2023-04-24T11:05:51;4.32;;;2.15;;
5841;SDS011;2947;52.276;9.946;2023-04-24T11:08:43;4.15;;;2.10;;
5841;SDS011;2947;52.276;9.946;2023-04-24T11:11:11;3.13;;;1.98;;
5841;SDS011;2947;52.276;9.946;2023-04-24T11:19:03;5.22;;;2.50;;
5841;SDS011;2947;52.276;9.946;2023-04-24T11:24:32;4.78;;;2.42;;
5841;SDS011;2947;52.276;9.946;2023-04-24T11:27:06;3.28;;;2.03;;
5841;SDS011;2947;52.276;9.946;2023-04-24T11:32:23;5.13;;;1.60;;
5841;SDS011;2947;52.276;9.946;2023-04-24T11:34:59;2.45;;;1.40;;
5841;SDS011;2947;52.276;9.946;2023-04-24T11:40:05;2.70;;;1.50;;
5841;SDS011;2947;52.276;9.946;2023-04-24T11:42:39;2.17;;;1.13;;
5841;SDS011;2947;52.276;9.946;2023-04-24T11:45:10;2.10;;;1.05;;
5841;SDS011;2947;52.276;9.946;2023-04-24T11:47:41;3.15;;;1.33;;
5841;SDS011;2947;52.276;9.946;2023-04-24T11:50:09;2.47;;;1.20;;
5841;SDS011;2947;52.276;9.946;2023-04-24T11:52:47;2.17;;;1.30;;
5841;SDS011;2947;52.276;9.946;2023-04-24T11:57:42;2.88;;;1.80;;
5841;SDS011;2947;52.276;9.946;2023-04-24T12:00:15;3.63;;;1.20;;
5841;SDS011;2947;52.276;9.946;2023-04-24T12:02:45;3.30;;;2.00;;
5841;SDS011;2947;52.276;9.946;2023-04-24T12:05:25;2.80;;;1.67;;
5841;SDS011;2947;52.276;9.946;2023-04-24T12:07:52;2.92;;;1.73;;
5841;SDS011;2947;52.276;9.946;2023-04-24T12:10:25;3.88;;;1.63;;
5841;SDS011;2947;52.276;9.946;2023-04-24T12:12:53;3.90;;;1.30;;
5841;SDS011;2947;52.276;9.946;2023-04-24T12:15:21;3.10;;;1.60;;
5841;SDS011;2947;52.276;9.946;2023-04-24T12:17:48;3.15;;;1.50;;
5841;SDS011;2947;52.276;9.946;2023-04-24T12:20:16;2.10;;;1.17;;
5841;SDS011;2947;52.276;9.946;2023-04-24T12:22:58;4.25;;;1.02;;
5841;SDS011;2947;52.276;9.946;2023-04-24T12:25:26;2.38;;;1.20;;
5841;SDS011;2947;52.276;9.946;2023-04-24T12:27:54;2.80;;;1.13;;
5841;SDS011;2947;52.276;9.946;2023-04-24T12:30:41;2.17;;;1.00;;
5841;SDS011;2947;52.276;9.946;2023-04-24T12:33:16;5.75;;;0.98;;
5841;SDS011;2947;52.276;9.946;2023-04-24T12:35:43;2.58;;;0.75;;
5841;SDS011;2947;52.276;9.946;2023-04-24T12:38:11;1.95;;;0.85;;
5841;SDS011;2947;52.276;9.946;2023-04-24T12:40:39;2.45;;;0.88;;
5841;SDS011;2947;52.276;9.946;2023-04-24T12:43:18;4.88;;;0.80;;
5841;SDS011;2947;52.276;9.946;2023-04-24T12:45:45;4.30;;;1.30;;
5841;SDS011;2947;52.276;9.946;2023-04-24T12:48:12;2.03;;;1.00;;
5841;SDS011;2947;52.276;9.946;2023-04-24T12:50:39;2.25;;;1.30;;
5841;SDS011;2947;52.276;9.946;2023-04-24T12:53:05;1.92;;;1.10;;
5841;SDS011;2947;52.276;9.946;2023-04-24T12:55:33;2.00;;;1.20;;
5841;SDS011;2947;52.276;9.946;2023-04-24T12:57:59;3.05;;;1.58;;
5841;SDS011;2947;52.276;9.946;2023-04-24T13:00:24;2.50;;;1.50;;
5841;SDS011;2947;52.276;9.946;2023-04-24T13:02:50;2.63;;;1.42;;
5841;SDS011;2947;52.276;9.946;2023-04-24T13:05:16;2.72;;;1.23;;
5841;SDS011;2947;52.276;9.946;2023-04-24T13:07:42;3.70;;;1.73;;
5841;SDS011;2947;52.276;9.946;2023-04-24T13:10:07;2.88;;;1.63;;
5841;SDS011;2947;52.276;9.946;2023-04-24T13:12:34;2.85;;;1.40;;
5841;SDS011;2947;52.276;9.946;2023-04-24T13:15:00;2.58;;;1.60;;
5841;SDS011;2947;52.276;9.946;2023-04-24T13:17:26;4.03;;;2.05;;
5841;SDS011;2947;52.276;9.946;2023-04-24T13:19:53;2.28;;;1.30;;
5841;SDS011;2947;52.276;9.946;2023-04-24T13:22:20;2.63;;;1.95;;
5841;SDS011;2947;52.276;9.946;2023-04-24T13:24:45;3.33;;;1.77;;
5841;SDS011;2947;52.276;9.946;2023-04-24T13:27:13;2.45;;;1.40;;
5841;SDS011;2947;52.276;9.946;2023-04-24T13:29:40;2.43;;;1.33;;
5841;SDS011;2947;52.276;9.946;2023-04-24T13:32:06;4.60;;;1.45;;
5841;SDS011;2947;52.276;9.946;2023-04-24T13:34:33;2.00;;;1.00;;
5841;SDS011;2947;52.276;9.946;2023-04-24T13:36:59;2.30;;;1.10;;
5841;SDS011;2947;52.276;9.946;2023-04-24T13:39:26;2.13;;;1.08;;
5841;SDS011;2947;52.276;9.946;2023-04-24T13:41:52;1.70;;;0.80;;
5841;SDS011;2947;52.276;9.946;2023-04-24T13:44:18;3.40;;;1.30;;
5841;SDS011;2947;52.276;9.946;2023-04-24T13:46:46;2.67;;;0.90;;
5841;SDS011;2947;52.276;9.946;2023-04-24T13:49:13;2.10;;;0.90;;
5841;SDS011;2947;52.276;9.946;2023-04-24T13:51:40;1.87;;;0.80;;
5841;SDS011;2947;52.276;9.946;2023-04-24T13:54:07;3.30;;;0.93;;
5841;SDS011;2947;52.276;9.946;2023-04-24T13:56:33;1.67;;;0.60;;
5841;SDS011;2947;52.276;9.946;2023-04-24T13:58:59;2.05;;;0.80;;
5841;SDS011;2947;52.276;9.946;2023-04-24T14:01:25;1.63;;;0.70;;
5841;SDS011;2947;52.276;9.946;2023-04-24T14:03:51;1.60;;;0.60;;
5841;SDS011;2947;52.276;9.946;2023-04-24T14:06:18;1.87;;;0.63;;
5841;SDS011;2947;52.276;9.946;2023-04-24T14:08:48;1.60;;;0.70;;
5841;SDS011;2947;52.276;9.946;2023-04-24T14:11:15;1.73;;;0.80;;
5841;SDS011;2947;52.276;9.946;2023-04-24T14:13:41;2.33;;;0.57;;
5841;SDS011;2947;52.276;9.946;2023-04-24T14:16:07;1.53;;;0.53;;
5841;SDS011;2947;52.276;9.946;2023-04-24T14:18:33;1.43;;;0.50;;
5841;SDS011;2947;52.276;9.946;2023-04-24T14:20:58;1.43;;;0.57;;
5841;SDS011;2947;52.276;9.946;2023-04-24T14:23:26;1.50;;;0.57;;
5841;SDS011;2947;52.276;9.946;2023-04-24T14:25:51;1.70;;;0.60;;
5841;SDS011;2947;52.276;9.946;2023-04-24T14:28:18;3.00;;;0.77;;
5841;SDS011;2947;52.276;9.946;2023-04-24T14:30:45;2.10;;;0.70;;
5841;SDS011;2947;52.276;9.946;2023-04-24T14:33:14;1.60;;;0.60;;
5841;SDS011;2947;52.276;9.946;2023-04-24T14:35:40;2.40;;;0.87;;
5841;SDS011;2947;52.276;9.946;2023-04-24T14:38:10;1.43;;;0.60;;
5841;SDS011;2947;52.276;9.946;2023-04-24T14:40:36;2.33;;;0.70;;
5841;SDS011;2947;52.276;9.946;2023-04-24T14:43:02;1.70;;;0.73;;
5841;SDS011;2947;52.276;9.946;2023-04-24T14:45:28;2.03;;;1.00;;
5841;SDS011;2947;52.276;9.946;2023-04-24T14:47:54;2.50;;;0.97;;
5841;SDS011;2947;52.276;9.946;2023-04-24T14:50:21;1.97;;;0.90;;
5841;SDS011;2947;52.276;9.946;2023-04-24T14:52:46;3.97;;;1.20;;
5841;SDS011;2947;52.276;9.946;2023-04-24T14:55:12;2.30;;;1.10;;
5841;SDS011;2947;52.276;9.946;2023-04-24T14:57:38;4.30;;;1.40;;
5841;SDS011;2947;52.276;9.946;2023-04-24T15:00:05;3.43;;;1.67;;
5841;SDS011;2947;52.276;9.946;2023-04-24T15:02:33;3.97;;;2.00;;
5841;SDS011;2947;52.276;9.946;2023-04-24T15:04:59;5.73;;;1.60;;
5841;SDS011;2947;52.276;9.946;2023-04-24T15:07:26;4.97;;;1.90;;
5841;SDS011;2947;52.276;9.946;2023-04-24T15:09:51;7.67;;;2.00;;
5841;SDS011;2947;52.276;9.946;2023-04-24T15:12:17;4.73;;;1.70;;
5841;SDS011;2947;52.276;9.946;2023-04-24T15:14:43;6.43;;;1.97;;
5841;SDS011;2947;52.276;9.946;2023-04-24T15:17:08;4.27;;;1.90;;
5841;SDS011;2947;52.276;9.946;2023-04-24T15:19:34;5.10;;;2.03;;
5841;SDS011;2947;52.276;9.946;2023-04-24T15:22:00;4.03;;;2.00;;
5841;SDS011;2947;52.276;9.946;2023-04-24T15:24:25;4.43;;;1.83;;
5841;SDS011;2947;52.276;9.946;2023-04-24T15:26:51;4.10;;;1.60;;
5841;SDS011;2947;52.276;9.946;2023-04-24T15:29:18;4.43;;;1.93;;
5841;SDS011;2947;52.276;9.946;2023-04-24T15:31:43;4.50;;;2.00;;
5841;SDS011;2947;52.276;9.946;2023-04-24T15:34:09;4.10;;;1.93;;